sensor_id;sensor_type;location;lat;lon;timestamp;pressure;altitude;pressure_sealevel;temperature;humidity
56518;BME280;42419;48.760;2.322;2023-04-15T00:02:20;99745.31;;;25.82;27.93
56518;BME280;42419;48.760;2.322;2023-04-15T00:04:46;99742.75;;;25.81;28.08
56518;BME280;42419;48.760;2.322;2023-04-15T00:07:11;99673.84;;;25.43;28.16
56518;BME280;42419;48.760;2.322;2023-04-15T00:09:37;99733.06;;;25.78;27.63
56518;BME280;42419;48.760;2.322;2023-04-15T00:12:03;99707.56;;;25.71;27.59
56518;BME280;42419;48.760;2.322;2023-04-15T00:14:28;99721.16;;;25.81;27.92
56518;BME280;42419;48.760;2.322;2023-04-15T00:16:55;99717.59;;;25.80;27.67
56518;BME280;42419;48.760;2.322;2023-04-15T00:19:21;99720.31;;;25.80;27.60
56518;BME280;42419;48.760;2.322;2023-04-15T00:21:46;99699.94;;;25.65;28.11
56518;BME280;42419;48.760;2.322;2023-04-15T00:24:12;99712.22;;;25.80;27.66
56518;BME280;42419;48.760;2.322;2023-04-15T00:26:37;99701.69;;;25.77;28.15
56518;BME280;42419;48.760;2.322;2023-04-15T00:29:03;99695.91;;;25.82;27.66
56518;BME280;42419;48.760;2.322;2023-04-15T00:31:29;99701.56;;;25.79;28.05
56518;BME280;42419;48.760;2.322;2023-04-15T00:33:54;99688.56;;;25.73;28.00
56518;BME280;42419;48.760;2.322;2023-04-15T00:36:20;99703.63;;;25.75;27.60
56518;BME280;42419;48.760;2.322;2023-04-15T00:38:45;99694.69;;;25.75;27.86
56518;BME280;42419;48.760;2.322;2023-04-15T00:41:11;99694.06;;;25.71;28.16
56518;BME280;42419;48.760;2.322;2023-04-15T00:43:37;99688.47;;;25.74;28.10
56518;BME280;42419;48.760;2.322;2023-04-15T00:46:03;99691.75;;;25.78;27.58
56518;BME280;42419;48.760;2.322;2023-04-15T00:48:30;99691.00;;;25.76;27.60
56518;BME280;42419;48.760;2.322;2023-04-15T00:50:56;99684.75;;;25.75;27.92
56518;BME280;42419;48.760;2.322;2023-04-15T00:53:21;99674.44;;;25.69;28.00
56518;BME280;42419;48.760;2.322;2023-04-15T00:55:47;99685.88;;;25.73;27.77
56518;BME280;42419;48.760;2.322;2023-04-15T00:58:12;99686.59;;;25.75;27.60
56518;BME280;42419;48.760;2.322;2023-04-15T01:00:38;99681.56;;;25.81;27.51
56518;BME280;42419;48.760;2.322;2023-04-15T01:03:05;99680.72;;;25.81;27.62
56518;BME280;42419;48.760;2.322;2023-04-15T01:05:30;99673.97;;;25.75;27.46
56518;BME280;42419;48.760;2.322;2023-04-15T01:07:56;99679.00;;;25.80;28.13
56518;BME280;42419;48.760;2.322;2023-04-15T01:10:21;99674.34;;;25.82;27.50
56518;BME280;42419;48.760;2.322;2023-04-15T01:12:46;99662.81;;;25.80;27.70
56518;BME280;42419;48.760;2.322;2023-04-15T01:15:12;99663.69;;;25.80;27.84
56518;BME280;42419;48.760;2.322;2023-04-15T01:17:38;99667.59;;;25.76;27.82
56518;BME280;42419;48.760;2.322;2023-04-15T01:20:04;99666.50;;;25.79;27.78
56518;BME280;42419;48.760;2.322;2023-04-15T01:22:32;99667.50;;;25.78;27.69
56518;BME280;42419;48.760;2.322;2023-04-15T01:25:18;99666.38;;;25.80;27.69
56518;BME280;42419;48.760;2.322;2023-04-15T01:27:44;99661.72;;;25.82;27.59
56518;BME280;42419;48.760;2.322;2023-04-15T01:30:09;99641.50;;;25.66;27.61
56518;BME280;42419;48.760;2.322;2023-04-15T01:32:35;99657.56;;;25.78;28.02
56518;BME280;42419;48.760;2.322;2023-04-15T01:35:02;99656.94;;;25.75;27.59
56518;BME280;42419;48.760;2.322;2023-04-15T01:37:28;99667.50;;;25.78;28.03
56518;BME280;42419;48.760;2.322;2023-04-15T01:39:53;99646.38;;;25.61;27.57
56518;BME280;42419;48.760;2.322;2023-04-15T01:42:20;99646.63;;;25.69;27.59
56518;BME280;42419;48.760;2.322;2023-04-15T01:44:46;99637.22;;;25.74;27.85
56518;BME280;42419;48.760;2.322;2023-04-15T01:47:11;99649.81;;;25.85;27.79
56518;BME280;42419;48.760;2.322;2023-04-15T01:49:36;99624.81;;;25.61;27.55
56518;BME280;42419;48.760;2.322;2023-04-15T01:52:02;99660.50;;;25.86;27.60
56518;BME280;42419;48.760;2.322;2023-04-15T01:54:27;99658.28;;;25.80;27.67
56518;BME280;42419;48.760;2.322;2023-04-15T01:56:52;99669.81;;;25.82;27.57
56518;BME280;42419;48.760;2.322;2023-04-15T01:59:21;99671.16;;;25.77;27.66
56518;BME280;42419;48.760;2.322;2023-04-15T02:01:46;99686.84;;;25.83;27.49
56518;BME280;42419;48.760;2.322;2023-04-15T02:04:12;99674.34;;;25.82;27.99
56518;BME280;42419;48.760;2.322;2023-04-15T02:06:43;99665.66;;;25.78;27.93
56518;BME280;42419;48.760;2.322;2023-04-15T02:09:09;99671.16;;;25.77;28.02
56518;BME280;42419;48.760;2.322;2023-04-15T02:11:35;99660.03;;;25.70;28.04
56518;BME280;42419;48.760;2.322;2023-04-15T02:14:01;99674.72;;;25.77;27.60
56518;BME280;42419;48.760;2.322;2023-04-15T02:16:26;99678.28;;;25.78;27.99
56518;BME280;42419;48.760;2.322;2023-04-15T02:18:52;99680.97;;;25.78;28.26
56518;BME280;42419;48.760;2.322;2023-04-15T02:21:17;99679.13;;;25.78;27.33
56518;BME280;42419;48.760;2.322;2023-04-15T02:23:43;99674.84;;;25.76;27.82
56518;BME280;42419;48.760;2.322;2023-04-15T02:26:08;99677.66;;;25.85;27.33
56518;BME280;42419;48.760;2.322;2023-04-15T02:28:34;99684.03;;;25.84;27.51
56518;BME280;42419;48.760;2.322;2023-04-15T02:31:00;99692.25;;;25.83;27.95
56518;BME280;42419;48.760;2.322;2023-04-15T02:33:26;99686.38;;;25.78;27.91
56518;BME280;42419;48.760;2.322;2023-04-15T02:35:51;99697.00;;;25.79;27.71
56518;BME280;42419;48.760;2.322;2023-04-15T02:38:17;99691.00;;;25.76;27.56
56518;BME280;42419;48.760;2.322;2023-04-15T02:40:42;99681.34;;;25.73;27.95
56518;BME280;42419;48.760;2.322;2023-04-15T02:43:08;99695.53;;;25.75;27.63
56518;BME280;42419;48.760;2.322;2023-04-15T02:45:34;99704.00;;;25.82;27.62
56518;BME280;42419;48.760;2.322;2023-04-15T02:48:00;99713.81;;;25.83;27.96
56518;BME280;42419;48.760;2.322;2023-04-15T02:50:30;99716.88;;;25.78;27.87
56518;BME280;42419;48.760;2.322;2023-04-15T02:52:55;99714.81;;;25.82;27.66
56518;BME280;42419;48.760;2.322;2023-04-15T02:55:21;99731.84;;;25.82;27.96
56518;BME280;42419;48.760;2.322;2023-04-15T02:57:46;99728.28;;;25.82;27.70
56518;BME280;42419;48.760;2.322;2023-04-15T03:00:12;99730.00;;;25.83;27.37
56518;BME280;42419;48.760;2.322;2023-04-15T03:02:38;99742.63;;;25.82;27.87
56518;BME280;42419;48.760;2.322;2023-04-15T03:05:04;99743.34;;;25.84;27.89
56518;BME280;42419;48.760;2.322;2023-04-15T03:07:30;99748.63;;;25.86;27.97
56518;BME280;42419;48.760;2.322;2023-04-15T03:09:56;99751.31;;;25.86;27.39
56518;BME280;42419;48.760;2.322;2023-04-15T03:12:22;99757.47;;;25.88;28.09
56518;BME280;42419;48.760;2.322;2023-04-15T03:14:47;99754.63;;;25.89;27.56
56518;BME280;42419;48.760;2.322;2023-04-15T03:17:12;99764.81;;;25.86;27.48
56518;BME280;42419;48.760;2.322;2023-04-15T03:19:38;99769.09;;;25.88;27.79
56518;BME280;42419;48.760;2.322;2023-04-15T03:22:03;99778.19;;;25.87;27.54
56518;BME280;42419;48.760;2.322;2023-04-15T03:24:28;99776.47;;;25.86;27.54
56518;BME280;42419;48.760;2.322;2023-04-15T03:26:55;99777.53;;;25.84;28.00
56518;BME280;42419;48.760;2.322;2023-04-15T03:29:24;99787.38;;;25.85;27.63
56518;BME280;42419;48.760;2.322;2023-04-15T03:31:49;99783.94;;;25.83;27.84
56518;BME280;42419;48.760;2.322;2023-04-15T03:34:15;99790.81;;;25.87;28.04
56518;BME280;42419;48.760;2.322;2023-04-15T03:36:40;99770.81;;;25.78;27.30
56518;BME280;42419;48.760;2.322;2023-04-15T03:39:05;99792.66;;;25.86;27.72
56518;BME280;42419;48.760;2.322;2023-04-15T03:41:31;99796.94;;;25.89;27.29
56518;BME280;42419;48.760;2.322;2023-04-15T03:43:57;99778.28;;;25.75;27.39
56518;BME280;42419;48.760;2.322;2023-04-15T03:46:22;99787.88;;;25.79;27.70
56518;BME280;42419;48.760;2.322;2023-04-15T03:48:47;99813.25;;;25.87;27.87
56518;BME280;42419;48.760;2.322;2023-04-15T03:51:12;99814.34;;;25.85;27.49
56518;BME280;42419;48.760;2.322;2023-04-15T03:53:38;99816.91;;;25.86;27.52
56518;BME280;42419;48.760;2.322;2023-04-15T03:56:03;99816.81;;;25.88;27.91
56518;BME280;42419;48.760;2.322;2023-04-15T03:58:29;99802.19;;;25.79;27.85
56518;BME280;42419;48.760;2.322;2023-04-15T04:00:54;99819.38;;;25.89;27.87
56518;BME280;42419;48.760;2.322;2023-04-15T04:03:20;99826.13;;;25.95;27.38
56518;BME280;42419;48.760;2.322;2023-04-15T04:05:45;99825.63;;;25.90;27.43
56518;BME280;42419;48.760;2.322;2023-04-15T04:08:11;99808.94;;;25.85;27.29
56518;BME280;42419;48.760;2.322;2023-04-15T04:10:38;99826.22;;;25.93;27.77
56518;BME280;42419;48.760;2.322;2023-04-15T04:13:04;99827.25;;;25.92;27.57
56518;BME280;42419;48.760;2.322;2023-04-15T04:15:29;99816.06;;;25.86;27.71
56518;BME280;42419;48.760;2.322;2023-04-15T04:17:55;99834.09;;;25.97;27.24
56518;BME280;42419;48.760;2.322;2023-04-15T04:20:20;99829.78;;;25.94;27.67
56518;BME280;42419;48.760;2.322;2023-04-15T04:22:45;99833.09;;;25.98;27.29
56518;BME280;42419;48.760;2.322;2023-04-15T04:25:11;99829.06;;;25.92;27.31
56518;BME280;42419;48.760;2.322;2023-04-15T04:27:37;99837.28;;;26.02;27.35
56518;BME280;42419;48.760;2.322;2023-04-15T04:30:03;99842.06;;;25.98;27.15
56518;BME280;42419;48.760;2.322;2023-04-15T04:32:28;99816.81;;;25.88;27.14
56518;BME280;42419;48.760;2.322;2023-04-15T04:34:53;99838.13;;;26.02;27.41
56518;BME280;42419;48.760;2.322;2023-04-15T04:37:19;99840.63;;;26.05;27.62
56518;BME280;42419;48.760;2.322;2023-04-15T04:39:44;99844.44;;;26.14;27.15
56518;BME280;42419;48.760;2.322;2023-04-15T04:42:09;99850.19;;;26.09;27.14
56518;BME280;42419;48.760;2.322;2023-04-15T04:44:35;99851.41;;;26.05;26.89
56518;BME280;42419;48.760;2.322;2023-04-15T04:47:00;99864.91;;;26.05;27.26
56518;BME280;42419;48.760;2.322;2023-04-15T04:49:26;99846.84;;;25.95;27.07
56518;BME280;42419;48.760;2.322;2023-04-15T04:51:51;99864.03;;;26.05;27.44
56518;BME280;42419;48.760;2.322;2023-04-15T04:54:16;99873.72;;;26.07;27.39
56518;BME280;42419;48.760;2.322;2023-04-15T04:56:42;99880.59;;;26.11;27.25
56518;BME280;42419;48.760;2.322;2023-04-15T04:59:07;99876.91;;;26.12;26.97
56518;BME280;42419;48.760;2.322;2023-04-15T05:01:33;99886.22;;;26.08;27.40
56518;BME280;42419;48.760;2.322;2023-04-15T05:03:58;99892.75;;;26.17;26.87
56518;BME280;42419;48.760;2.322;2023-04-15T05:06:24;99886.63;;;26.15;26.91
56518;BME280;42419;48.760;2.322;2023-04-15T05:08:50;99878.50;;;26.04;27.43
56518;BME280;42419;48.760;2.322;2023-04-15T05:11:15;99870.88;;;25.98;26.81
56518;BME280;42419;48.760;2.322;2023-04-15T05:13:41;99901.69;;;26.17;27.08
56518;BME280;42419;48.760;2.322;2023-04-15T05:16:06;99908.94;;;26.17;27.21
56518;BME280;42419;48.760;2.322;2023-04-15T05:18:32;99924.16;;;26.18;27.23
56518;BME280;42419;48.760;2.322;2023-04-15T05:20:58;99922.53;;;26.15;27.27
56518;BME280;42419;48.760;2.322;2023-04-15T05:23:23;99926.34;;;26.13;27.36
56518;BME280;42419;48.760;2.322;2023-04-15T05:25:49;99925.72;;;26.09;27.17
56518;BME280;42419;48.760;2.322;2023-04-15T05:28:14;99939.59;;;26.16;26.90
56518;BME280;42419;48.760;2.322;2023-04-15T05:30:39;99951.13;;;26.18;27.07
56518;BME280;42419;48.760;2.322;2023-04-15T05:33:05;99953.84;;;26.18;27.23
56518;BME280;42419;48.760;2.322;2023-04-15T05:35:30;99953.22;;;26.14;26.88
56518;BME280;42419;48.760;2.322;2023-04-15T05:37:55;99962.19;;;26.15;27.20
56518;BME280;42419;48.760;2.322;2023-04-15T05:40:21;99964.63;;;26.18;27.15
56518;BME280;42419;48.760;2.322;2023-04-15T05:42:47;99971.00;;;26.17;27.06
56518;BME280;42419;48.760;2.322;2023-04-15T05:45:12;99973.81;;;26.15;26.87
56518;BME280;42419;48.760;2.322;2023-04-15T05:47:37;99979.19;;;26.15;26.97
56518;BME280;42419;48.760;2.322;2023-04-15T05:50:03;99977.50;;;26.14;26.96
56518;BME280;42419;48.760;2.322;2023-04-15T05:52:30;99974.81;;;26.14;26.85
56518;BME280;42419;48.760;2.322;2023-04-15T05:54:55;99988.06;;;26.17;27.25
56518;BME280;42419;48.760;2.322;2023-04-15T05:57:21;99994.44;;;26.16;27.22
56518;BME280;42419;48.760;2.322;2023-04-15T05:59:46;99975.78;;;26.13;26.92
56518;BME280;42419;48.760;2.322;2023-04-15T06:02:11;100002.06;;;26.22;27.23
56518;BME280;42419;48.760;2.322;2023-04-15T06:04:37;100008.06;;;26.26;26.85
56518;BME280;42419;48.760;2.322;2023-04-15T06:07:03;100014.59;;;26.23;27.23
56518;BME280;42419;48.760;2.322;2023-04-15T06:09:31;100016.16;;;26.26;26.69
56518;BME280;42419;48.760;2.322;2023-04-15T06:11:57;100022.69;;;26.23;27.25
56518;BME280;42419;48.760;2.322;2023-04-15T06:14:23;100024.25;;;26.26;26.85
56518;BME280;42419;48.760;2.322;2023-04-15T06:16:48;100000.78;;;26.15;26.88
56518;BME280;42419;48.760;2.322;2023-04-15T06:19:13;100032.38;;;26.26;27.02
56518;BME280;42419;48.760;2.322;2023-04-15T06:21:39;100037.88;;;26.24;27.06
56518;BME280;42419;48.760;2.322;2023-04-15T06:24:04;100052.38;;;26.23;26.84
56518;BME280;42419;48.760;2.322;2023-04-15T06:26:30;100035.75;;;26.17;27.07
56518;BME280;42419;48.760;2.322;2023-04-15T06:28:55;100036.38;;;26.20;26.93
56518;BME280;42419;48.760;2.322;2023-04-15T06:31:21;100054.25;;;26.34;26.90
56518;BME280;42419;48.760;2.322;2023-04-15T06:33:46;100050.28;;;26.27;26.94
56518;BME280;42419;48.760;2.322;2023-04-15T06:36:12;100076.00;;;26.44;27.07
56518;BME280;42419;48.760;2.322;2023-04-15T06:38:37;100091.00;;;26.48;26.61
56518;BME280;42419;48.760;2.322;2023-04-15T06:41:03;100093.69;;;26.48;27.16
56518;BME280;42419;48.760;2.322;2023-04-15T06:43:29;100089.63;;;26.42;26.71
56518;BME280;42419;48.760;2.322;2023-04-15T06:45:55;100105.59;;;26.45;26.95
56518;BME280;42419;48.760;2.322;2023-04-15T06:48:21;100102.75;;;26.47;27.03
56518;BME280;42419;48.760;2.322;2023-04-15T06:50:46;100097.34;;;26.35;26.63
56518;BME280;42419;48.760;2.322;2023-04-15T06:53:12;100123.63;;;26.45;26.63
56518;BME280;42419;48.760;2.322;2023-04-15T06:55:37;100111.34;;;26.41;26.61
56518;BME280;42419;48.760;2.322;2023-04-15T06:58:02;100137.50;;;26.51;27.17
56518;BME280;42419;48.760;2.322;2023-04-15T07:00:28;100126.09;;;26.48;26.71
56518;BME280;42419;48.760;2.322;2023-04-15T07:02:53;100102.97;;;26.32;27.11
56518;BME280;42419;48.760;2.322;2023-04-15T07:05:19;100135.91;;;26.49;27.15
56518;BME280;42419;48.760;2.322;2023-04-15T07:07:45;100139.41;;;26.38;27.26
56518;BME280;42419;48.760;2.322;2023-04-15T07:10:10;100159.13;;;26.51;26.66
56518;BME280;42419;48.760;2.322;2023-04-15T07:12:36;100152.75;;;26.52;26.82
56518;BME280;42419;48.760;2.322;2023-04-15T07:15:02;100162.16;;;26.47;27.01
56518;BME280;42419;48.760;2.322;2023-04-15T07:17:27;100165.91;;;26.57;26.32
56518;BME280;42419;48.760;2.322;2023-04-15T07:19:53;100172.78;;;26.61;26.23
56518;BME280;42419;48.760;2.322;2023-04-15T07:22:18;100185.91;;;26.54;26.42
56518;BME280;42419;48.760;2.322;2023-04-15T07:24:43;100169.78;;;26.42;26.60
56518;BME280;42419;48.760;2.322;2023-04-15T07:27:09;100179.13;;;26.49;26.67
56518;BME280;42419;48.760;2.322;2023-04-15T07:29:34;100189.56;;;26.53;26.84
56518;BME280;42419;48.760;2.322;2023-04-15T07:31:59;100188.00;;;26.51;26.45
56518;BME280;42419;48.760;2.322;2023-04-15T07:34:25;100200.28;;;26.55;26.54
56518;BME280;42419;48.760;2.322;2023-04-15T07:36:50;100211.28;;;26.52;27.11
56518;BME280;42419;48.760;2.322;2023-04-15T07:39:19;100207.28;;;26.57;26.46
56518;BME280;42419;48.760;2.322;2023-04-15T07:41:44;100206.50;;;26.55;26.65
56518;BME280;42419;48.760;2.322;2023-04-15T07:44:10;100210.06;;;26.56;26.52
56518;BME280;42419;48.760;2.322;2023-04-15T07:46:35;100228.97;;;26.56;26.32
56518;BME280;42419;48.760;2.322;2023-04-15T07:49:02;100239.78;;;26.56;26.25
56518;BME280;42419;48.760;2.322;2023-04-15T07:51:27;100259.69;;;26.55;26.16
56518;BME280;42419;48.760;2.322;2023-04-15T07:53:53;100257.94;;;26.54;26.11
56518;BME280;42419;48.760;2.322;2023-04-15T07:56:19;100192.34;;;26.04;26.44
56518;BME280;42419;48.760;2.322;2023-04-15T07:58:44;100249.84;;;26.54;26.63
56518;BME280;42419;48.760;2.322;2023-04-15T08:01:10;100253.41;;;26.54;27.20
56518;BME280;42419;48.760;2.322;2023-04-15T08:03:35;100263.34;;;26.54;27.40
56518;BME280;42419;48.760;2.322;2023-04-15T08:06:01;100256.56;;;26.48;27.78
56518;BME280;42419;48.760;2.322;2023-04-15T08:08:27;100271.03;;;26.47;28.30
56518;BME280;42419;48.760;2.322;2023-04-15T08:10:52;100262.94;;;26.47;27.77
56518;BME280;42419;48.760;2.322;2023-04-15T08:13:17;100289.50;;;26.53;28.50
56518;BME280;42419;48.760;2.322;2023-04-15T08:15:43;100287.66;;;26.54;28.56
56518;BME280;42419;48.760;2.322;2023-04-15T08:18:08;100311.47;;;26.60;28.68
56518;BME280;42419;48.760;2.322;2023-04-15T08:20:33;100305.59;;;26.55;29.11
56518;BME280;42419;48.760;2.322;2023-04-15T08:22:59;100310.50;;;26.61;28.66
56518;BME280;42419;48.760;2.322;2023-04-15T08:25:24;100321.44;;;26.59;28.93
56518;BME280;42419;48.760;2.322;2023-04-15T08:27:50;100322.19;;;26.61;28.60
56518;BME280;42419;48.760;2.322;2023-04-15T08:30:16;100325.13;;;26.58;28.32
56518;BME280;42419;48.760;2.322;2023-04-15T08:32:44;100336.66;;;26.60;28.25
56518;BME280;42419;48.760;2.322;2023-04-15T08:35:11;100338.50;;;26.60;28.23
56518;BME280;42419;48.760;2.322;2023-04-15T08:37:36;100347.69;;;26.57;27.99
56518;BME280;42419;48.760;2.322;2023-04-15T08:40:02;100349.63;;;26.55;27.99
56518;BME280;42419;48.760;2.322;2023-04-15T08:42:35;100353.19;;;26.56;27.92
56518;BME280;42419;48.760;2.322;2023-04-15T08:45:03;100346.44;;;26.50;27.85
56518;BME280;42419;48.760;2.322;2023-04-15T08:47:30;100368.75;;;26.52;27.43
56518;BME280;42419;48.760;2.322;2023-04-15T08:50:02;100367.16;;;26.50;27.52
56518;BME280;42419;48.760;2.322;2023-04-15T08:52:29;100360.78;;;26.38;27.49
56518;BME280;42419;48.760;2.322;2023-04-15T08:54:57;100372.13;;;26.43;27.50
56518;BME280;42419;48.760;2.322;2023-04-15T08:57:29;100379.16;;;26.46;27.40
56518;BME280;42419;48.760;2.322;2023-04-15T08:59:55;100383.78;;;26.44;27.51
56518;BME280;42419;48.760;2.322;2023-04-15T09:02:22;100382.72;;;26.33;26.99
56518;BME280;42419;48.760;2.322;2023-04-15T09:04:48;100401.81;;;26.43;27.56
56518;BME280;42419;48.760;2.322;2023-04-15T09:07:14;100404.66;;;26.42;27.09
56518;BME280;42419;48.760;2.322;2023-04-15T09:09:39;100421.81;;;26.41;27.35
56518;BME280;42419;48.760;2.322;2023-04-15T09:12:06;100409.28;;;26.40;26.96
56518;BME280;42419;48.760;2.322;2023-04-15T09:14:32;100414.91;;;26.37;27.38
56518;BME280;42419;48.760;2.322;2023-04-15T09:17:00;100406.66;;;26.25;27.18
56518;BME280;42419;48.760;2.322;2023-04-15T09:19:27;100424.22;;;26.32;27.07
56518;BME280;42419;48.760;2.322;2023-04-15T09:21:54;100425.56;;;26.25;26.88
56518;BME280;42419;48.760;2.322;2023-04-15T09:24:21;100439.69;;;26.29;27.09
56518;BME280;42419;48.760;2.322;2023-04-15T09:26:46;100439.94;;;26.26;27.32
56518;BME280;42419;48.760;2.322;2023-04-15T09:29:12;100433.44;;;26.16;26.99
56518;BME280;42419;48.760;2.322;2023-04-15T09:31:38;100464.44;;;26.23;26.88
56518;BME280;42419;48.760;2.322;2023-04-15T09:34:04;100471.78;;;26.21;26.64
56518;BME280;42419;48.760;2.322;2023-04-15T09:36:55;100473.50;;;26.22;26.87
56518;BME280;42419;48.760;2.322;2023-04-15T09:39:21;100470.34;;;26.15;26.79
56518;BME280;42419;48.760;2.322;2023-04-15T09:41:47;100464.63;;;26.07;26.92
56518;BME280;42419;48.760;2.322;2023-04-15T09:44:27;100482.88;;;26.16;26.84
56518;BME280;42419;48.760;2.322;2023-04-15T09:46:53;100462.25;;;26.03;26.62
56518;BME280;42419;48.760;2.322;2023-04-15T09:49:18;100501.59;;;26.19;26.40
56518;BME280;42419;48.760;2.322;2023-04-15T09:51:44;100480.41;;;26.01;27.32
56518;BME280;42419;48.760;2.322;2023-04-15T09:54:11;100503.72;;;26.14;27.30
56518;BME280;42419;48.760;2.322;2023-04-15T09:56:37;100504.91;;;26.10;27.91
56518;BME280;42419;48.760;2.322;2023-04-15T09:59:06;100519.03;;;26.01;27.75
56518;BME280;42419;48.760;2.322;2023-04-15T10:01:32;100516.75;;;26.08;27.73
56518;BME280;42419;48.760;2.322;2023-04-15T10:03:58;100521.59;;;26.03;28.12
56518;BME280;42419;48.760;2.322;2023-04-15T10:06:26;100530.91;;;26.11;28.27
56518;BME280;42419;48.760;2.322;2023-04-15T10:08:53;100536.75;;;26.18;27.74
56518;BME280;42419;48.760;2.322;2023-04-15T10:11:19;100540.03;;;26.23;28.28
56518;BME280;42419;48.760;2.322;2023-04-15T10:13:48;100536.34;;;26.24;28.53
56518;BME280;42419;48.760;2.322;2023-04-15T10:16:15;100545.28;;;26.24;28.17
56518;BME280;42419;48.760;2.322;2023-04-15T10:18:53;100545.28;;;26.24;28.82
56518;BME280;42419;48.760;2.322;2023-04-15T10:21:19;100552.69;;;26.35;28.88
56518;BME280;42419;48.760;2.322;2023-04-15T10:23:47;100499.94;;;26.04;28.72
56518;BME280;42419;48.760;2.322;2023-04-15T10:26:12;100562.31;;;26.39;29.07
56518;BME280;42419;48.760;2.322;2023-04-15T10:28:42;100553.19;;;26.27;29.37
56518;BME280;42419;48.760;2.322;2023-04-15T10:31:08;100575.91;;;26.38;29.68
56518;BME280;42419;48.760;2.322;2023-04-15T10:33:36;100573.34;;;26.36;30.22
56518;BME280;42419;48.760;2.322;2023-04-15T10:36:03;100578.81;;;26.34;30.61
56518;BME280;42419;48.760;2.322;2023-04-15T10:38:44;100585.75;;;26.39;30.84
56518;BME280;42419;48.760;2.322;2023-04-15T10:41:24;100596.75;;;26.35;31.55
56518;BME280;42419;48.760;2.322;2023-04-15T10:44:08;100588.66;;;26.35;31.34
56518;BME280;42419;48.760;2.322;2023-04-15T10:46:42;100580.97;;;26.29;31.07
56518;BME280;42419;48.760;2.322;2023-04-15T10:49:10;100566.47;;;26.18;31.12
56518;BME280;42419;48.760;2.322;2023-04-15T10:51:37;100590.50;;;26.35;31.21
56518;BME280;42419;48.760;2.322;2023-04-15T10:54:30;100597.94;;;26.31;31.12
56518;BME280;42419;48.760;2.322;2023-04-15T11:01:59;100580.16;;;26.15;31.71
56518;BME280;42419;48.760;2.322;2023-04-15T11:07:45;100620.13;;;26.22;32.13
56518;BME280;42419;48.760;2.322;2023-04-15T11:12:37;100608.81;;;26.03;33.25
56518;BME280;42419;48.760;2.322;2023-04-15T11:15:31;100624.63;;;26.09;33.97
56518;BME280;42419;48.760;2.322;2023-04-15T11:18:20;100630.63;;;26.00;33.90
56518;BME280;42419;48.760;2.322;2023-04-15T11:23:12;100642.31;;;25.86;34.46
56518;BME280;42419;48.760;2.322;2023-04-15T11:25:38;100646.06;;;25.84;34.13
56518;BME280;42419;48.760;2.322;2023-04-15T11:28:04;100643.56;;;25.81;34.17
56518;BME280;42419;48.760;2.322;2023-04-15T11:30:31;100653.72;;;25.77;34.05
56518;BME280;42419;48.760;2.322;2023-04-15T11:33:00;100647.53;;;25.75;34.13
56518;BME280;42419;48.760;2.322;2023-04-15T11:35:26;100652.38;;;25.70;34.40
56518;BME280;42419;48.760;2.322;2023-04-15T11:37:52;100657.06;;;25.67;34.38
56518;BME280;42419;48.760;2.322;2023-04-15T11:40:23;100665.44;;;25.62;34.62
56518;BME280;42419;48.760;2.322;2023-04-15T11:43:11;100667.75;;;25.54;33.98
56518;BME280;42419;48.760;2.322;2023-04-15T11:48:17;100684.16;;;25.51;34.44
56518;BME280;42419;48.760;2.322;2023-04-15T11:50:43;100699.66;;;25.47;34.56
56518;BME280;42419;48.760;2.322;2023-04-15T11:53:10;100679.03;;;25.32;34.39
56518;BME280;42419;48.760;2.322;2023-04-15T11:55:45;100681.94;;;25.29;34.45
56518;BME280;42419;48.760;2.322;2023-04-15T12:00:38;100709.06;;;25.40;34.47
56518;BME280;42419;48.760;2.322;2023-04-15T12:03:27;100705.78;;;25.35;34.29
56518;BME280;42419;48.760;2.322;2023-04-15T12:06:05;100721.78;;;25.38;34.00
56518;BME280;42419;48.760;2.322;2023-04-15T12:11:49;100734.47;;;25.36;33.86
56518;BME280;42419;48.760;2.322;2023-04-15T12:16:45;100738.53;;;25.29;34.05
56518;BME280;42419;48.760;2.322;2023-04-15T12:19:14;100744.88;;;25.28;33.48
56518;BME280;42419;48.760;2.322;2023-04-15T12:21:43;100749.19;;;25.31;33.62
56518;BME280;42419;48.760;2.322;2023-04-15T12:24:09;100747.50;;;25.30;33.38
56518;BME280;42419;48.760;2.322;2023-04-15T12:26:46;100751.03;;;25.30;33.87
56518;BME280;42419;48.760;2.322;2023-04-15T12:29:13;100757.28;;;25.31;33.70
56518;BME280;42419;48.760;2.322;2023-04-15T12:31:47;100766.16;;;25.33;33.12
56518;BME280;42419;48.760;2.322;2023-04-15T12:34:14;100771.56;;;25.33;33.07
56518;BME280;42419;48.760;2.322;2023-04-15T12:36:40;100767.31;;;25.29;33.79
56518;BME280;42419;48.760;2.322;2023-04-15T12:39:06;100774.59;;;25.27;33.18
56518;BME280;42419;48.760;2.322;2023-04-15T12:41:32;100770.69;;;25.32;33.12
56518;BME280;42419;48.760;2.322;2023-04-15T12:43:57;100791.28;;;25.33;33.32
56518;BME280;42419;48.760;2.322;2023-04-15T12:46:23;100786.66;;;25.35;33.06
56518;BME280;42419;48.760;2.322;2023-04-15T12:48:49;100793.69;;;25.38;33.10
56518;BME280;42419;48.760;2.322;2023-04-15T12:51:16;100802.66;;;25.38;33.06
56518;BME280;42419;48.760;2.322;2023-04-15T12:53:41;100804.38;;;25.39;33.27
56518;BME280;42419;48.760;2.322;2023-04-15T12:56:07;100800.91;;;25.37;32.56
56518;BME280;42419;48.760;2.322;2023-04-15T12:58:32;100799.72;;;25.27;32.71
56518;BME280;42419;48.760;2.322;2023-04-15T13:00:57;100818.66;;;25.41;32.86
56518;BME280;42419;48.760;2.322;2023-04-15T13:03:23;100813.81;;;25.32;32.26
56518;BME280;42419;48.760;2.322;2023-04-15T13:05:48;100813.13;;;25.29;32.64
56518;BME280;42419;48.760;2.322;2023-04-15T13:08:13;100832.31;;;25.38;32.70
56518;BME280;42419;48.760;2.322;2023-04-15T13:10:39;100843.09;;;25.38;32.28
56518;BME280;42419;48.760;2.322;2023-04-15T13:13:06;100839.63;;;25.36;32.73
56518;BME280;42419;48.760;2.322;2023-04-15T13:15:32;100846.66;;;25.39;32.80
56518;BME280;42419;48.760;2.322;2023-04-15T13:17:57;100852.06;;;25.39;32.27